Time;durP1;ratioP1;P1;durP2;ratioP2;P2;SDS_P1;SDS_P2;PMS_P1;PMS_P2;Temp;Humidity;BMP_temperature;BMP_pressure;BME280_temperature;BME280_humidity;BME280_pressure;Samples;Min_cycle;Max_cycle;Signal;HPM_P1;HPM_P2
2021/10/05 00:00:56;;;;;;;11.17;7.70;;;16.30;1.00;;;;;;4996964;28;20458;-81
2021/10/05 00:03:26;;;;;;;8.60;6.90;;;16.30;1.00;;;;;;5005138;28;20494;-82
2021/10/05 00:05:54;;;;;;;9.57;7.00;;;16.30;1.00;;;;;;5002519;28;20462;-80
2021/10/05 00:08:22;;;;;;;8.80;6.90;;;16.20;1.00;;;;;;4998539;28;20491;-82
2021/10/05 00:10:51;;;;;;;9.83;7.80;;;16.30;1.00;;;;;;5004402;28;20467;-83
2021/10/05 00:13:19;;;;;;;8.33;7.50;;;16.30;1.00;;;;;;4983729;28;20463;-84
2021/10/05 00:15:48;;;;;;;10.90;7.37;;;16.30;1.00;;;;;;5000349;28;20455;-82
2021/10/05 00:18:17;;;;;;;11.23;7.70;;;16.20;1.00;;;;;;5013216;28;20494;-85
2021/10/05 00:20:46;;;;;;;10.00;7.60;;;16.30;1.00;;;;;;5011621;28;20470;-84
2021/10/05 00:23:14;;;;;;;9.63;7.60;;;16.20;1.00;;;;;;5014987;28;20450;-83
2021/10/05 00:25:43;;;;;;;9.60;7.40;;;16.20;1.00;;;;;;4995790;28;21069;-85
2021/10/05 00:28:11;;;;;;;9.57;7.47;;;16.30;1.00;;;;;;5012994;28;20552;-83
2021/10/05 00:30:39;;;;;;;11.27;7.60;;;16.30;1.00;;;;;;5011100;28;20970;-83
2021/10/05 00:33:07;;;;;;;10.50;8.27;;;16.20;1.00;;;;;;5013010;28;20581;-82
2021/10/05 00:35:35;;;;;;;10.10;7.43;;;16.20;1.00;;;;;;5011903;28;20520;-82
2021/10/05 00:38:05;;;;;;;9.30;7.67;;;16.20;1.00;;;;;;4994721;28;20537;-84
2021/10/05 00:40:33;;;;;;;8.43;6.93;;;16.20;1.00;;;;;;4993365;28;20458;-82
2021/10/05 00:43:01;;;;;;;10.53;7.30;;;16.20;1.00;;;;;;5005752;28;20517;-84
2021/10/05 00:45:29;;;;;;;10.67;7.23;;;16.10;1.00;;;;;;5011823;28;20482;-81
2021/10/05 00:47:57;;;;;;;9.63;7.30;;;16.20;1.00;;;;;;5011819;28;20467;-82
2021/10/05 00:50:26;;;;;;;10.70;8.07;;;16.20;1.00;;;;;;5009596;28;20525;-83
2021/10/05 00:52:54;;;;;;;12.93;7.97;;;16.20;1.00;;;;;;5002787;28;20467;-80
2021/10/05 00:55:24;;;;;;;8.10;6.63;;;16.20;1.00;;;;;;5002309;28;20462;-82
2021/10/05 00:57:53;;;;;;;9.17;6.73;;;16.10;1.00;;;;;;5009871;28;20482;-80
2021/10/05 01:00:24;;;;;;;9.27;6.27;;;16.10;1.00;;;;;;4986634;28;20924;-85
2021/10/05 01:02:53;;;;;;;9.47;6.60;;;16.10;1.00;;;;;;5004207;28;21000;-84
2021/10/05 01:05:22;;;;;;;8.73;6.47;;;16.10;1.00;;;;;;4986099;28;20882;-82
2021/10/05 01:07:51;;;;;;;7.40;5.80;;;16.10;1.00;;;;;;4997602;28;20482;-83
2021/10/05 01:10:19;;;;;;;7.33;5.70;;;16.10;1.00;;;;;;4992166;28;20537;-82
2021/10/05 01:12:51;;;;;;;8.27;6.23;;;16.10;1.00;;;;;;4990797;28;20464;-80
2021/10/05 01:15:24;;;;;;;8.93;6.40;;;16.10;1.00;;;;;;4987730;28;20838;-80
2021/10/05 01:17:58;;;;;;;8.87;6.40;;;16.10;1.00;;;;;;4997879;28;20840;-76
2021/10/05 01:20:26;;;;;;;7.93;5.57;;;16.00;1.00;;;;;;5007104;28;20446;-78
2021/10/05 01:22:55;;;;;;;9.17;5.70;;;16.00;1.00;;;;;;5001992;28;20487;-83
2021/10/05 01:25:25;;;;;;;9.30;5.20;;;16.00;1.00;;;;;;4989150;28;20495;-80
2021/10/05 01:27:54;;;;;;;8.90;5.77;;;16.00;1.00;;;;;;4999439;28;20466;-80
2021/10/05 01:30:23;;;;;;;8.67;6.47;;;16.10;1.00;;;;;;4989032;28;20458;-81
2021/10/05 01:32:52;;;;;;;7.87;5.77;;;16.00;1.00;;;;;;5011687;28;20504;-83
2021/10/05 01:35:20;;;;;;;7.70;5.83;;;16.00;1.00;;;;;;5003743;28;20548;-81
2021/10/05 01:37:49;;;;;;;8.60;6.30;;;16.00;1.00;;;;;;4986134;28;21087;-81
2021/10/05 01:40:18;;;;;;;10.33;6.67;;;16.00;1.00;;;;;;4996425;28;20510;-84
2021/10/05 01:42:46;;;;;;;7.30;5.87;;;16.10;1.00;;;;;;5004900;28;20451;-80
2021/10/05 01:45:14;;;;;;;8.17;6.27;;;16.10;1.00;;;;;;5002770;28;20552;-80
2021/10/05 01:47:43;;;;;;;11.50;6.67;;;16.10;1.00;;;;;;5004006;28;21334;-80
2021/10/05 01:50:11;;;;;;;10.60;6.50;;;16.00;1.00;;;;;;5001796;28;21116;-81
2021/10/05 01:52:40;;;;;;;7.97;6.20;;;16.00;1.00;;;;;;4994459;28;20528;-80
2021/10/05 01:55:09;;;;;;;10.53;7.30;;;15.90;1.00;;;;;;5002692;28;20532;-82
2021/10/05 01:57:38;;;;;;;6.23;5.40;;;15.90;1.00;;;;;;5008107;28;21056;-83
2021/10/05 02:00:08;;;;;;;8.70;6.77;;;16.00;1.00;;;;;;5006174;28;20472;-82
2021/10/05 02:02:36;;;;;;;8.33;5.80;;;16.00;1.00;;;;;;5007766;28;20874;-82
2021/10/05 02:05:06;;;;;;;8.27;5.93;;;16.00;1.00;;;;;;5008082;28;20481;-82
2021/10/05 02:07:36;;;;;;;11.70;7.93;;;16.10;1.00;;;;;;4989434;28;20501;-80
2021/10/05 02:10:05;;;;;;;9.97;6.70;;;16.10;1.00;;;;;;4987201;28;20461;-81
2021/10/05 02:12:33;;;;;;;9.63;6.60;;;16.10;1.00;;;;;;4978307;28;20864;-82
2021/10/05 02:15:03;;;;;;;7.80;5.67;;;16.00;1.00;;;;;;5011524;28;20504;-82
2021/10/05 02:17:32;;;;;;;7.90;5.83;;;16.00;1.00;;;;;;5009043;28;22438;-82
2021/10/05 02:20:00;;;;;;;7.93;5.63;;;16.00;1.00;;;;;;5008828;28;20460;-83
2021/10/05 02:22:31;;;;;;;11.07;6.77;;;16.00;1.00;;;;;;4987688;28;20508;-84
2021/10/05 02:24:59;;;;;;;9.13;7.30;;;15.80;2.50;;;;;;4987681;28;21026;-82
2021/10/05 02:27:27;;;;;;;9.03;6.37;;;16.10;10.30;;;;;;4997204;28;20565;-84
2021/10/05 02:29:55;;;;;;;14.33;7.40;;;16.10;1.00;;;;;;5007787;28;20461;-81
2021/10/05 02:32:25;;;;;;;9.67;6.47;;;16.10;1.00;;;;;;4984003;28;20479;-84
2021/10/05 02:34:53;;;;;;;8.03;6.20;;;16.00;1.00;;;;;;4990134;28;20462;-83
2021/10/05 02:37:21;;;;;;;11.93;7.50;;;16.10;1.00;;;;;;5008364;28;21072;-83
2021/10/05 02:39:50;;;;;;;9.30;6.57;;;16.10;1.00;;;;;;5009203;28;20454;-82
2021/10/05 02:42:22;;;;;;;8.37;6.40;;;16.10;1.00;;;;;;5009705;28;20455;-81
2021/10/05 02:44:50;;;;;;;9.30;5.93;;;16.00;1.00;;;;;;4992289;28;20454;-82
2021/10/05 02:47:18;;;;;;;10.53;6.63;;;16.00;1.00;;;;;;4990577;28;21008;-84
2021/10/05 02:49:48;;;;;;;8.90;6.30;;;16.00;1.00;;;;;;5005486;28;20505;-85
2021/10/05 02:52:19;;;;;;;8.50;6.47;;;16.00;1.00;;;;;;5008684;28;20453;-83
2021/10/05 02:54:48;;;;;;;10.33;6.67;;;16.00;87.80;;;;;;4990953;28;20450;-82
2021/10/05 02:57:18;;;;;;;9.97;7.50;;;16.00;48.00;;;;;;5009143;28;20477;-83
2021/10/05 02:59:46;;;;;;;11.80;7.13;;;16.00;1.00;;;;;;5008595;28;20457;-83
2021/10/05 03:02:15;;;;;;;9.60;6.83;;;16.00;2.50;;;;;;4990997;28;20457;-83
2021/10/05 03:04:44;;;;;;;11.23;7.43;;;16.00;1.00;;;;;;4992607;28;20641;-82
2021/10/05 03:07:14;;;;;;;8.00;5.93;;;16.00;11.20;;;;;;5009671;28;20544;-83
2021/10/05 03:09:42;;;;;;;15.57;6.70;;;16.00;91.90;;;;;;5009142;28;20485;-85
2021/10/05 03:12:11;;;;;;;10.30;6.77;;;16.00;1.00;;;;;;5009122;28;20484;-85
2021/10/05 03:14:39;;;;;;;11.90;6.93;;;16.00;30.40;;;;;;5007914;28;20541;-84
2021/10/05 03:17:07;;;;;;;8.90;6.50;;;16.00;99.90;;;;;;5007512;28;20469;-83
2021/10/05 03:19:35;;;;;;;10.47;7.07;;;16.00;85.80;;;;;;5007439;28;20458;-83
2021/10/05 03:22:03;;;;;;;10.20;6.80;;;16.00;40.00;;;;;;5007951;28;20512;-82
2021/10/05 03:24:33;;;;;;;10.87;6.83;;;16.00;33.00;;;;;;5008113;28;20446;-82
2021/10/05 03:27:01;;;;;;;9.37;7.10;;;16.00;39.40;;;;;;5009211;28;20486;-83
2021/10/05 03:29:30;;;;;;;9.67;6.83;;;16.00;99.90;;;;;;5009335;28;20466;-84
2021/10/05 03:31:58;;;;;;;8.97;6.47;;;16.00;99.90;;;;;;5008936;28;20463;-82
2021/10/05 03:34:26;;;;;;;8.47;5.80;;;16.00;99.90;;;;;;4990793;28;20509;-84
2021/10/05 03:36:54;;;;;;;9.07;6.13;;;16.00;99.90;;;;;;4990925;28;20471;-82
2021/10/05 03:39:22;;;;;;;10.37;6.20;;;16.10;99.90;;;;;;4990827;28;20536;-84
2021/10/05 03:41:52;;;;;;;8.50;6.10;;;16.10;99.90;;;;;;5008996;28;20465;-85
2021/10/05 03:44:20;;;;;;;9.63;6.60;;;16.00;99.90;;;;;;5009987;28;20445;-82
2021/10/05 03:46:48;;;;;;;9.87;6.50;;;16.00;99.90;;;;;;5009573;28;20540;-83
2021/10/05 03:49:17;;;;;;;9.30;6.67;;;16.00;99.90;;;;;;5008353;28;20543;-84
2021/10/05 03:51:47;;;;;;;8.60;5.33;;;16.00;99.90;;;;;;5009630;28;21256;-82
2021/10/05 03:54:15;;;;;;;9.33;6.60;;;16.10;99.90;;;;;;4988821;28;20464;-82
2021/10/05 03:56:43;;;;;;;10.10;5.57;;;16.00;99.90;;;;;;4978727;28;20900;-83
2021/10/05 03:59:15;;;;;;;6.87;5.10;;;16.00;99.90;;;;;;5006163;28;20468;-81
2021/10/05 04:01:44;;;;;;;10.20;6.57;;;16.00;29.70;;;;;;5007508;28;20470;-82
2021/10/05 04:04:12;;;;;;;8.97;6.00;;;16.00;99.90;;;;;;4988280;28;20473;-81
2021/10/05 04:06:41;;;;;;;11.83;7.50;;;16.00;99.90;;;;;;5006763;28;20492;-82
2021/10/05 04:09:09;;;;;;;10.20;6.13;;;16.10;99.90;;;;;;4997580;28;20512;-81
2021/10/05 04:11:38;;;;;;;7.80;5.20;;;16.10;99.90;;;;;;5002251;28;20460;-79
2021/10/05 04:14:06;;;;;;;9.20;6.50;;;16.10;77.10;;;;;;4999676;28;20459;-80
2021/10/05 04:16:35;;;;;;;7.10;5.00;;;16.10;1.00;;;;;;4983397;28;20989;-79
2021/10/05 04:19:04;;;;;;;8.23;5.73;;;16.10;1.00;;;;;;5000341;28;20456;-81
2021/10/05 04:21:32;;;;;;;9.47;5.77;;;16.10;1.00;;;;;;5000423;28;20998;-82
2021/10/05 04:24:01;;;;;;;9.37;5.17;;;16.10;1.00;;;;;;4964593;28;20455;-82
2021/10/05 04:26:29;;;;;;;10.27;5.77;;;16.10;1.00;;;;;;4975212;28;20482;-82
2021/10/05 04:28:57;;;;;;;7.83;5.00;;;16.00;1.00;;;;;;5001434;28;21033;-82
2021/10/05 04:31:25;;;;;;;7.93;5.00;;;16.00;93.30;;;;;;4993248;28;20459;-82
2021/10/05 04:33:55;;;;;;;7.93;5.20;;;16.00;99.90;;;;;;4999986;28;20520;-78
2021/10/05 04:36:23;;;;;;;6.93;5.20;;;16.00;83.10;;;;;;5003184;28;20460;-80
2021/10/05 04:38:51;;;;;;;6.03;4.83;;;15.80;1.00;;;;;;4984161;28;20925;-81
2021/10/05 04:41:20;;;;;;;7.57;4.70;;;15.70;1.00;;;;;;5002478;28;20530;-80
2021/10/05 04:43:48;;;;;;;7.20;4.70;;;15.60;99.90;;;;;;5002473;28;20519;-76
2021/10/05 04:46:16;;;;;;;8.00;4.67;;;15.50;1.00;;;;;;4993242;28;20516;-79
2021/10/05 04:48:44;;;;;;;7.00;4.93;;;15.60;99.90;;;;;;4992097;28;20486;-82
2021/10/05 04:51:13;;;;;;;7.10;4.60;;;15.70;1.00;;;;;;4979918;28;21029;-81
2021/10/05 04:53:42;;;;;;;7.80;4.93;;;15.80;1.00;;;;;;4998282;28;20458;-82
2021/10/05 04:56:10;;;;;;;7.17;4.70;;;15.90;99.90;;;;;;5000075;28;20456;-82
2021/10/05 04:58:38;;;;;;;5.30;3.67;;;15.80;99.90;;;;;;4994994;28;20477;-83
2021/10/05 05:01:06;;;;;;;7.00;4.30;;;15.90;99.90;;;;;;5000620;28;20453;-82
2021/10/05 05:03:34;;;;;;;7.53;4.43;;;15.90;99.90;;;;;;4987525;28;20550;-82
2021/10/05 05:06:03;;;;;;;4.40;3.70;;;15.90;99.90;;;;;;5005142;28;20824;-82
2021/10/05 05:08:33;;;;;;;6.90;4.40;;;15.90;99.90;;;;;;5003298;28;20484;-83
2021/10/05 05:11:01;;;;;;;5.93;3.60;;;15.90;99.90;;;;;;5002503;28;20501;-80
2021/10/05 05:13:30;;;;;;;5.93;4.23;;;15.90;99.90;;;;;;5003542;28;20498;-82
2021/10/05 05:15:58;;;;;;;5.10;3.90;;;16.00;99.90;;;;;;5004895;28;20495;-82
2021/10/05 05:18:26;;;;;;;3.90;3.33;;;15.90;99.90;;;;;;4987093;28;20467;-82
2021/10/05 05:20:54;;;;;;;5.67;4.40;;;16.00;99.90;;;;;;5004020;28;22026;-81
2021/10/05 05:23:22;;;;;;;5.27;3.87;;;16.00;99.90;;;;;;5003035;28;20447;-80
2021/10/05 05:25:52;;;;;;;6.07;3.70;;;15.90;99.90;;;;;;4982141;28;20869;-80
2021/10/05 05:28:21;;;;;;;6.67;4.73;;;15.90;99.90;;;;;;4989208;28;20841;-80
2021/10/05 05:30:49;;;;;;;6.27;3.67;;;15.90;99.90;;;;;;4999981;28;20450;-80
2021/10/05 05:33:17;;;;;;;6.30;4.20;;;16.00;99.90;;;;;;4981437;28;20461;-80
2021/10/05 05:35:46;;;;;;;6.33;4.13;;;15.90;99.90;;;;;;4999429;28;20543;-79
2021/10/05 05:38:14;;;;;;;6.30;4.70;;;15.90;99.90;;;;;;5003573;28;20543;-79
2021/10/05 05:40:42;;;;;;;7.43;5.67;;;15.90;99.90;;;;;;4993795;28;20856;-79
2021/10/05 05:43:11;;;;;;;4.97;3.60;;;15.90;99.90;;;;;;5000355;28;20462;-79
2021/10/05 05:45:41;;;;;;;6.50;4.83;;;15.90;99.90;;;;;;5002244;28;20470;-79
2021/10/05 05:48:10;;;;;;;9.03;5.10;;;15.90;99.90;;;;;;4999272;28;20530;-79
2021/10/05 05:50:38;;;;;;;8.27;5.93;;;15.90;99.90;;;;;;4999537;28;20966;-80
2021/10/05 05:53:06;;;;;;;6.10;3.80;;;16.10;99.90;;;;;;5000482;28;20552;-79
2021/10/05 05:55:34;;;;;;;7.50;5.10;;;16.00;99.90;;;;;;5001754;28;20485;-79
2021/10/05 05:58:09;;;;;;;10.30;6.47;;;16.00;99.90;;;;;;5003658;28;21001;-78
2021/10/05 06:00:38;;;;;;;10.13;5.17;;;15.90;99.90;;;;;;5001909;28;20457;-79
2021/10/05 06:03:07;;;;;;;7.90;5.50;;;15.90;99.90;;;;;;5003413;28;20514;-80
2021/10/05 06:05:35;;;;;;;10.50;6.50;;;15.90;99.90;;;;;;5002678;28;20623;-79
2021/10/05 06:08:04;;;;;;;6.10;4.47;;;15.90;99.90;;;;;;5003952;28;20485;-79
2021/10/05 06:10:33;;;;;;;8.50;6.10;;;15.90;99.90;;;;;;4997059;28;20459;-79
2021/10/05 06:13:01;;;;;;;8.00;5.00;;;16.00;99.90;;;;;;4983203;28;20457;-79
2021/10/05 06:15:29;;;;;;;7.00;4.47;;;16.00;99.90;;;;;;5002827;28;20456;-81
2021/10/05 06:17:59;;;;;;;9.47;5.70;;;16.00;54.00;;;;;;4999714;28;20469;-80
2021/10/05 06:20:28;;;;;;;6.90;5.53;;;15.90;34.80;;;;;;4982423;28;20996;-79
2021/10/05 06:22:57;;;;;;;8.40;5.00;;;16.00;99.90;;;;;;4997855;28;20536;-79
2021/10/05 06:25:28;;;;;;;10.37;5.83;;;16.00;31.70;;;;;;4976659;28;20827;-80
2021/10/05 06:27:57;;;;;;;8.33;4.07;;;15.90;99.90;;;;;;4996647;28;20478;-79
2021/10/05 06:30:27;;;;;;;7.10;4.83;;;15.90;52.40;;;;;;4994639;28;20460;-79
2021/10/05 06:32:56;;;;;;;6.43;4.53;;;15.90;1.00;;;;;;4993928;28;20461;-80
2021/10/05 06:35:30;;;;;;;7.90;5.10;;;15.90;1.00;;;;;;5001503;28;20546;-79
2021/10/05 06:38:00;;;;;;;7.90;5.07;;;15.90;1.00;;;;;;4997054;28;20476;-79
2021/10/05 06:40:30;;;;;;;7.03;5.00;;;15.90;1.00;;;;;;4975703;28;20454;-81
2021/10/05 06:42:59;;;;;;;8.67;5.33;;;15.90;99.90;;;;;;5003114;28;20983;-79
2021/10/05 06:45:28;;;;;;;9.00;5.30;;;15.90;20.30;;;;;;5001830;28;20457;-80
2021/10/05 06:47:56;;;;;;;7.85;5.57;;;15.90;72.50;;;;;;4995536;28;20478;-79
2021/10/05 06:50:30;;;;;;;7.70;5.37;;;15.90;99.90;;;;;;4991534;28;20223;-80
2021/10/05 06:52:58;;;;;;;5.87;4.17;;;16.00;5.40;;;;;;4991586;28;20460;-80
2021/10/05 06:55:26;;;;;;;7.10;4.80;;;15.80;21.00;;;;;;4999059;28;20519;-79
2021/10/05 06:57:54;;;;;;;6.03;4.40;;;15.80;99.90;;;;;;4997021;28;20470;-79
2021/10/05 07:00:23;;;;;;;6.00;4.03;;;15.70;99.90;;;;;;4998749;28;20470;-79
2021/10/05 07:02:52;;;;;;;7.30;5.33;;;15.60;99.90;;;;;;5001888;28;20518;-79
2021/10/05 07:05:22;;;;;;;9.33;5.00;;;15.80;99.90;;;;;;5002477;28;20446;-79
2021/10/05 07:07:53;;;;;;;6.13;4.20;;;15.80;99.90;;;;;;4983090;28;20488;-78
2021/10/05 07:10:23;;;;;;;6.53;3.93;;;15.80;99.90;;;;;;4978810;28;20712;-79
2021/10/05 07:12:52;;;;;;;4.53;3.47;;;15.90;96.60;;;;;;4997699;28;21107;-80
2021/10/05 07:15:21;;;;;;;7.00;4.13;;;15.80;1.00;;;;;;4995763;28;20450;-79
2021/10/05 07:17:53;;;;;;;5.93;3.67;;;15.60;1.00;;;;;;4990898;28;20470;-79
2021/10/05 07:20:30;;;;;;;5.40;3.73;;;15.50;1.00;;;;;;4992849;28;20453;-79
2021/10/05 07:23:00;;;;;;;5.40;3.53;;;15.60;1.00;;;;;;4991355;28;20467;-78
2021/10/05 07:25:29;;;;;;;4.20;3.80;;;15.60;1.00;;;;;;4999990;28;20461;-80
2021/10/05 07:27:58;;;;;;;8.80;4.87;;;15.80;99.90;;;;;;5000795;28;20536;-80
2021/10/05 07:30:27;;;;;;;5.53;3.43;;;15.60;1.00;;;;;;4997402;28;20460;-80
2021/10/05 07:32:59;;;;;;;5.40;4.17;;;15.30;1.00;;;;;;4996646;28;20460;-80
2021/10/05 07:35:27;;;;;;;8.23;4.50;;;15.20;99.90;;;;;;4998303;28;20468;-79
2021/10/05 07:37:56;;;;;;;4.43;2.97;;;15.30;1.00;;;;;;4996552;28;20510;-80
2021/10/05 07:40:26;;;;;;;3.33;2.53;;;15.50;99.90;;;;;;4998155;28;20454;-79
2021/10/05 07:42:55;;;;;;;4.00;2.67;;;15.60;35.00;;;;;;4975990;28;20460;-80
2021/10/05 07:45:26;;;;;;;3.77;2.50;;;15.50;1.00;;;;;;4997569;28;20450;-79
2021/10/05 07:47:54;;;;;;;3.07;2.40;;;15.30;99.90;;;;;;4996079;28;20487;-79
2021/10/05 07:50:24;;;;;;;4.33;3.93;;;15.40;99.90;;;;;;4994874;28;20953;-78
2021/10/05 07:52:57;;;;;;;2.77;2.30;;;15.40;1.00;;;;;;4993426;28;20543;-80
2021/10/05 07:55:28;;;;;;;4.20;3.20;;;15.20;1.00;;;;;;4994415;28;20468;-79
2021/10/05 07:57:57;;;;;;;4.80;3.10;;;15.30;1.00;;;;;;4987483;28;20495;-79
2021/10/05 08:00:26;;;;;;;6.03;4.40;;;15.40;99.90;;;;;;4989668;28;20878;-79
2021/10/05 08:02:55;;;;;;;4.70;3.37;;;15.40;1.00;;;;;;4997089;28;21047;-79
2021/10/05 08:05:24;;;;;;;3.63;2.83;;;15.40;1.00;;;;;;4987585;28;20465;-79
2021/10/05 08:07:57;;;;;;;4.40;3.37;;;15.60;1.00;;;;;;4990873;28;20495;-80
2021/10/05 08:10:28;;;;;;;5.87;3.20;;;15.50;1.00;;;;;;4975236;28;20457;-79
2021/10/05 08:12:56;;;;;;;5.57;3.50;;;15.60;1.00;;;;;;4972740;28;20456;-79
2021/10/05 08:15:27;;;;;;;4.20;3.30;;;15.70;1.00;;;;;;4993769;28;21050;-80
2021/10/05 08:17:56;;;;;;;4.57;3.47;;;15.70;99.90;;;;;;4990082;28;20475;-79
2021/10/05 08:20:26;;;;;;;4.97;3.10;;;15.70;1.00;;;;;;4998550;28;20479;-80
2021/10/05 08:22:54;;;;;;;4.13;3.23;;;15.60;1.00;;;;;;4990369;28;20460;-81
2021/10/05 08:25:23;;;;;;;5.10;3.90;;;15.30;99.90;;;;;;4995705;28;20452;-79
2021/10/05 08:27:53;;;;;;;5.27;3.57;;;15.30;99.90;;;;;;4992555;28;20533;-79
2021/10/05 08:30:22;;;;;;;4.50;3.10;;;15.20;16.60;;;;;;4997184;28;20485;-80
2021/10/05 08:32:50;;;;;;;6.40;4.17;;;15.30;1.00;;;;;;4976654;28;20446;-79
2021/10/05 08:35:20;;;;;;;5.63;4.37;;;15.30;1.00;;;;;;4995537;28;20455;-79
2021/10/05 08:37:49;;;;;;;4.70;3.67;;;15.30;1.00;;;;;;5003124;28;20461;-79
2021/10/05 08:40:19;;;;;;;5.10;3.70;;;15.40;1.00;;;;;;4971816;28;20442;-79
2021/10/05 08:42:47;;;;;;;4.50;4.07;;;15.50;87.70;;;;;;4992531;28;20457;-80
2021/10/05 08:45:17;;;;;;;4.70;3.27;;;15.60;31.30;;;;;;4997474;28;20555;-78
2021/10/05 08:47:45;;;;;;;4.47;3.33;;;15.70;1.00;;;;;;4988570;28;20547;-79
2021/10/05 08:50:16;;;;;;;4.40;3.40;;;15.40;99.90;;;;;;4991806;28;20485;-79
2021/10/05 08:52:45;;;;;;;4.53;4.03;;;15.60;99.90;;;;;;4996553;28;20451;-79
2021/10/05 08:55:14;;;;;;;4.10;3.17;;;15.50;99.90;;;;;;4996826;28;20450;-79
2021/10/05 08:57:42;;;;;;;9.50;5.30;;;15.70;99.90;;;;;;5001249;28;20524;-80
2021/10/05 09:00:11;;;;;;;9.17;6.50;;;15.50;1.00;;;;;;5000624;28;20437;-78
2021/10/05 09:02:50;;;;;;;6.93;4.33;;;15.30;99.90;;;;;;5000603;28;20468;-79
2021/10/05 09:05:24;;;;;;;7.20;4.50;;;15.50;1.00;;;;;;4996333;28;20490;-79
2021/10/05 09:07:54;;;;;;;5.70;4.10;;;15.50;1.00;;;;;;4999550;28;20490;-79
2021/10/05 09:10:26;;;;;;;5.00;3.60;;;15.40;99.90;;;;;;5001322;28;20487;-79
2021/10/05 09:12:55;;;;;;;4.57;3.67;;;15.60;1.00;;;;;;5002799;28;20549;-79
2021/10/05 09:15:24;;;;;;;5.40;3.87;;;15.60;1.00;;;;;;4999700;28;20464;-79
2021/10/05 09:17:57;;;;;;;3.70;3.03;;;15.40;1.00;;;;;;4993098;28;20477;-79
2021/10/05 09:20:28;;;;;;;3.50;2.60;;;15.60;99.90;;;;;;4997656;28;20518;-78
2021/10/05 09:23:02;;;;;;;4.07;3.67;;;15.60;99.90;;;;;;4996573;28;20456;-79
2021/10/05 09:25:32;;;;;;;5.60;3.37;;;15.40;99.90;;;;;;4999356;28;20520;-79
2021/10/05 09:28:02;;;;;;;3.23;2.93;;;15.60;99.90;;;;;;4999414;28;20469;-77
2021/10/05 09:30:30;;;;;;;5.00;3.70;;;15.60;1.00;;;;;;4997066;28;21387;-79
2021/10/05 09:33:02;;;;;;;3.00;2.57;;;15.30;1.00;;;;;;4979904;28;20489;-79
2021/10/05 09:35:47;;;;;;;3.47;2.30;;;15.40;21.10;;;;;;4979908;28;20464;-79
2021/10/05 09:38:18;;;;;;;2.67;2.47;;;15.50;99.90;;;;;;4995681;28;21497;-80
2021/10/05 09:40:58;;;;;;;3.50;2.40;;;15.60;1.00;;;;;;4976898;28;20469;-81
2021/10/05 09:43:27;;;;;;;2.40;1.93;;;15.80;99.90;;;;;;4985797;28;20449;-80
2021/10/05 09:46:09;;;;;;;3.30;2.50;;;15.90;99.90;;;;;;5004388;28;20516;-80
2021/10/05 09:48:39;;;;;;;2.77;1.93;;;16.00;99.90;;;;;;5002034;28;20493;-80
2021/10/05 09:51:19;;;;;;;3.13;2.10;;;16.00;99.90;;;;;;4974991;28;20478;-80
2021/10/05 09:53:47;;;;;;;1.87;1.67;;;16.10;1.00;;;;;;4999416;28;21240;-80
2021/10/05 09:56:16;;;;;;;2.03;1.60;;;16.20;1.00;;;;;;4997845;28;20456;-79
2021/10/05 09:58:44;;;;;;;2.17;1.97;;;16.30;99.90;;;;;;4997166;28;20520;-81
2021/10/05 10:01:12;;;;;;;2.10;1.83;;;16.10;99.90;;;;;;4998766;28;21082;-78
2021/10/05 10:03:43;;;;;;;1.60;1.50;;;16.00;99.90;;;;;;4975954;28;20570;-80
2021/10/05 10:06:13;;;;;;;2.23;1.83;;;15.70;1.00;;;;;;4998372;28;20464;-80
2021/10/05 10:08:45;;;;;;;2.00;1.60;;;15.70;1.00;;;;;;4974237;28;20468;-80
2021/10/05 10:11:14;;;;;;;1.60;1.40;;;15.50;1.00;;;;;;4978973;28;20484;-80
2021/10/05 10:13:43;;;;;;;1.70;1.60;;;15.50;99.90;;;;;;4984792;28;20468;-80
2021/10/05 10:16:12;;;;;;;2.20;2.00;;;15.60;99.90;;;;;;5003325;28;20460;-79
2021/10/05 10:18:52;;;;;;;2.30;1.97;;;15.60;1.00;;;;;;4984515;28;20470;-80
2021/10/05 10:21:29;;;;;;;2.67;1.73;;;15.60;1.00;;;;;;5003567;28;20452;-79
2021/10/05 10:24:12;;;;;;;1.90;1.70;;;15.50;1.00;;;;;;4985770;28;20816;-81
2021/10/05 10:26:44;;;;;;;3.07;1.40;;;15.70;1.00;;;;;;4983153;28;20621;-79
2021/10/05 10:29:32;;;;;;;2.33;1.80;;;15.70;99.90;;;;;;5001898;28;20536;-79
2021/10/05 10:32:10;;;;;;;1.70;1.60;;;15.80;1.00;;;;;;5002556;28;20445;-79
2021/10/05 10:34:43;;;;;;;1.60;1.50;;;15.80;99.90;;;;;;4987989;28;20451;-79
2021/10/05 10:37:13;;;;;;;1.43;1.30;;;16.00;99.90;;;;;;4995835;28;20355;-80
2021/10/05 10:39:43;;;;;;;1.40;1.20;;;16.20;1.00;;;;;;4980063;28;20461;-80
2021/10/05 10:42:11;;;;;;;1.30;1.20;;;16.30;1.00;;;;;;4993283;28;20458;-78
2021/10/05 10:44:41;;;;;;;1.37;1.23;;;16.50;99.90;;;;;;4977585;28;20543;-80
2021/10/05 10:47:13;;;;;;;0.90;0.90;;;16.50;1.00;;;;;;4977638;28;20489;-79
2021/10/05 10:49:54;;;;;;;1.40;1.30;;;16.40;1.00;;;;;;5000457;28;20494;-79
2021/10/05 10:52:26;;;;;;;1.80;1.70;;;16.10;99.90;;;;;;4973130;28;20484;-79
2021/10/05 10:54:56;;;;;;;1.30;1.20;;;16.10;77.60;;;;;;5000842;28;20464;-79
2021/10/05 10:57:36;;;;;;;1.10;1.00;;;16.30;1.00;;;;;;4995830;28;20973;-79
2021/10/05 11:00:19;;;;;;;1.60;1.27;;;16.20;20.80;;;;;;4994597;28;20513;-79
2021/10/05 11:02:49;;;;;;;1.50;1.40;;;16.20;99.90;;;;;;4997540;28;21140;-80
2021/10/05 11:05:21;;;;;;;1.20;1.10;;;16.10;1.00;;;;;;4992175;28;20572;-79
2021/10/05 11:07:50;;;;;;;1.33;1.17;;;16.00;99.90;;;;;;4992716;28;20463;-80
2021/10/05 11:10:25;;;;;;;1.50;1.07;;;16.00;1.00;;;;;;4997046;28;20222;-80
2021/10/05 11:12:55;;;;;;;0.90;0.90;;;15.90;99.90;;;;;;4994982;28;20488;-79
2021/10/05 11:15:32;;;;;;;1.43;1.20;;;16.10;99.90;;;;;;4998671;28;20465;-79
2021/10/05 11:18:09;;;;;;;1.13;1.03;;;16.20;99.90;;;;;;4993354;28;20848;-79
2021/10/05 11:20:40;;;;;;;2.10;1.40;;;16.10;99.90;;;;;;4997433;28;21036;-78
2021/10/05 11:23:08;;;;;;;1.30;1.20;;;16.10;1.00;;;;;;4997413;28;20458;-79
2021/10/05 11:25:36;;;;;;;1.10;1.00;;;16.20;47.40;;;;;;4995169;28;20464;-79
2021/10/05 11:28:13;;;;;;;1.17;1.00;;;16.40;28.70;;;;;;4995041;28;20491;-78
2021/10/05 11:30:50;;;;;;;1.40;1.20;;;16.40;99.90;;;;;;4995645;28;20483;-79
2021/10/05 11:33:21;;;;;;;1.00;0.90;;;16.30;99.90;;;;;;4975765;28;20503;-79
2021/10/05 11:35:50;;;;;;;0.70;0.70;;;16.30;99.90;;;;;;4976887;28;20469;-79
2021/10/05 11:38:19;;;;;;;1.17;1.07;;;16.50;1.00;;;;;;4993466;28;20721;-79
2021/10/05 11:40:57;;;;;;;1.23;1.13;;;16.30;1.00;;;;;;4995025;28;20974;-79
2021/10/05 11:43:36;;;;;;;1.10;1.00;;;16.20;4.20;;;;;;4994212;28;21471;-80
2021/10/05 11:46:09;;;;;;;0.93;0.90;;;16.20;18.00;;;;;;4996018;28;20473;-80
2021/10/05 11:48:39;;;;;;;0.90;0.80;;;16.30;1.00;;;;;;4996693;28;20578;-79
2021/10/05 11:51:09;;;;;;;0.80;0.80;;;16.40;1.00;;;;;;4992934;28;20544;-79
2021/10/05 11:53:39;;;;;;;1.00;0.90;;;16.20;15.80;;;;;;4995781;28;20462;-81
2021/10/05 11:56:09;;;;;;;0.77;0.77;;;16.30;99.90;;;;;;4993050;28;20458;-80
2021/10/05 11:58:47;;;;;;;1.00;0.90;;;16.30;99.90;;;;;;4998472;28;20488;-79
2021/10/05 12:01:22;;;;;;;0.70;0.70;;;16.70;99.90;;;;;;4991738;28;20449;-80
2021/10/05 12:03:53;;;;;;;0.70;0.70;;;16.50;3.60;;;;;;4971942;28;20522;-80
2021/10/05 12:06:28;;;;;;;1.00;0.90;;;16.60;1.00;;;;;;4983400;28;20588;-79
2021/10/05 12:08:57;;;;;;;0.70;0.70;;;16.50;99.90;;;;;;4998306;28;20458;-78
2021/10/05 12:11:36;;;;;;;0.80;0.80;;;16.60;99.90;;;;;;4975269;28;20478;-80
2021/10/05 12:14:04;;;;;;;0.90;0.90;;;16.80;1.00;;;;;;4993850;28;21095;-79
2021/10/05 12:16:32;;;;;;;0.80;0.80;;;16.80;99.90;;;;;;4985666;28;20482;-79
2021/10/05 12:19:02;;;;;;;0.87;0.70;;;16.90;99.90;;;;;;4985699;28;20876;-80
2021/10/05 12:21:32;;;;;;;0.70;0.70;;;17.00;99.90;;;;;;4994510;28;20509;-80
2021/10/05 12:24:02;;;;;;;0.67;0.60;;;17.10;1.00;;;;;;4998866;28;20464;-79
2021/10/05 12:26:30;;;;;;;0.70;0.70;;;17.00;7.90;;;;;;4999261;28;20455;-80
2021/10/05 12:29:03;;;;;;;2.20;0.60;;;17.10;38.40;;;;;;4999632;28;20952;-80
2021/10/05 12:31:32;;;;;;;0.53;0.50;;;17.20;8.10;;;;;;4999508;28;20488;-79
2021/10/05 12:34:07;;;;;;;0.60;0.60;;;17.10;1.00;;;;;;4998193;28;20460;-80
2021/10/05 12:36:38;;;;;;;0.60;0.60;;;17.20;1.00;;;;;;4980796;28;20471;-80
2021/10/05 12:39:11;;;;;;;0.60;0.60;;;17.10;35.80;;;;;;5002319;28;20463;-79
2021/10/05 12:41:40;;;;;;;0.50;0.50;;;16.90;1.00;;;;;;4998803;28;21022;-79
2021/10/05 12:44:14;;;;;;;0.50;0.50;;;16.80;1.00;;;;;;5005560;28;20456;-80
2021/10/05 12:46:53;;;;;;;0.40;0.40;;;16.90;1.00;;;;;;4996857;28;20497;-80
2021/10/05 12:49:21;;;;;;;0.50;0.50;;;16.90;1.00;;;;;;4994726;28;20467;-81
2021/10/05 12:51:52;;;;;;;0.50;0.50;;;17.00;1.00;;;;;;4985766;28;20493;-79
2021/10/05 12:54:21;;;;;;;0.50;0.50;;;17.10;1.00;;;;;;5001608;28;21020;-80
2021/10/05 12:56:50;;;;;;;0.73;0.73;;;17.20;1.00;;;;;;4982013;28;21010;-80
2021/10/05 12:59:18;;;;;;;0.50;0.50;;;17.20;1.00;;;;;;4978116;28;20519;-80
2021/10/05 13:01:47;;;;;;;0.67;0.50;;;17.20;1.00;;;;;;4983207;28;20459;-80
2021/10/05 13:04:16;;;;;;;0.70;0.70;;;17.50;1.00;;;;;;4978249;28;20467;-80